Time;durP1;ratioP1;P1;durP2;ratioP2;P2;SDS_P1;SDS_P2;PMS_P1;PMS_P2;Temp;Humidity;BMP_temperature;BMP_pressure;BME280_temperature;BME280_humidity;BME280_pressure;Samples;Min_cycle;Max_cycle;Signal;HPM_P1;HPM_P2
2023/03/19 00:01:47;;;;;;;0.70;0.40;;;21.90;41.10;;;;;;5056651;28;20025;-47
2023/03/19 00:04:16;;;;;;;1.55;0.50;;;21.90;41.10;;;;;;5059661;28;20106;-51
2023/03/19 00:06:42;;;;;;;3.08;0.80;;;21.90;41.20;;;;;;5057962;28;20082;-49
2023/03/19 00:09:08;;;;;;;0.90;0.40;;;21.90;41.30;;;;;;5048398;28;20037;-47
2023/03/19 00:11:34;;;;;;;0.52;0.50;;;21.90;41.30;;;;;;5050636;28;20087;-51
2023/03/19 00:14:00;;;;;;;0.77;0.45;;;21.90;41.30;;;;;;5057743;28;20041;-48
2023/03/19 00:16:26;;;;;;;1.38;0.40;;;21.80;41.30;;;;;;5054846;28;20446;-50
2023/03/19 00:18:52;;;;;;;0.50;0.45;;;21.80;41.30;;;;;;5057317;28;20341;-49
2023/03/19 00:21:18;;;;;;;1.73;0.60;;;21.80;41.40;;;;;;5051720;28;20032;-52
2023/03/19 00:23:44;;;;;;;0.45;0.38;;;21.80;41.40;;;;;;5055673;28;20363;-46
2023/03/19 00:26:10;;;;;;;0.75;0.40;;;21.80;41.40;;;;;;5055895;28;20056;-51
2023/03/19 00:28:37;;;;;;;0.82;0.40;;;21.90;41.50;;;;;;5057241;28;20048;-49
2023/03/19 00:31:11;;;;;;;1.10;0.43;;;21.80;41.50;;;;;;5058644;28;20016;-47
2023/03/19 00:33:37;;;;;;;1.08;0.40;;;21.80;41.50;;;;;;5058037;28;20063;-48
2023/03/19 00:36:05;;;;;;;1.67;0.50;;;21.80;41.50;;;;;;5054929;28;20025;-48
2023/03/19 00:38:34;;;;;;;0.57;0.32;;;21.80;41.60;;;;;;5056426;28;20413;-46
2023/03/19 00:41:04;;;;;;;0.85;0.40;;;21.80;41.60;;;;;;5058164;28;20064;-53
2023/03/19 00:43:30;;;;;;;0.40;0.30;;;21.80;41.60;;;;;;5060918;28;20020;-49
2023/03/19 00:45:56;;;;;;;0.80;0.40;;;21.80;41.60;;;;;;5057385;28;20021;-51
2023/03/19 00:48:22;;;;;;;0.88;0.50;;;21.70;41.50;;;;;;5051730;28;20044;-48
2023/03/19 00:50:49;;;;;;;0.73;0.30;;;21.80;41.70;;;;;;5061029;28;20024;-51
2023/03/19 00:53:15;;;;;;;0.60;0.32;;;21.70;41.60;;;;;;5075107;28;20040;-49
2023/03/19 00:55:41;;;;;;;0.95;0.50;;;21.70;41.60;;;;;;5054217;28;20029;-47
2023/03/19 00:58:09;;;;;;;0.88;0.30;;;21.80;41.70;;;;;;5055558;28;20048;-48
2023/03/19 01:00:38;;;;;;;1.08;0.40;;;21.70;41.70;;;;;;5063264;28;20032;-48
2023/03/19 01:03:05;;;;;;;0.98;0.60;;;21.70;41.70;;;;;;5052364;28;20043;-52
2023/03/19 01:05:33;;;;;;;0.63;0.30;;;21.70;41.70;;;;;;5054814;28;20025;-50
2023/03/19 01:07:59;;;;;;;1.67;0.30;;;21.70;41.70;;;;;;5052173;28;20035;-50
2023/03/19 01:10:25;;;;;;;0.40;0.30;;;21.70;41.70;;;;;;5056170;28;20357;-53
2023/03/19 01:12:51;;;;;;;0.73;0.30;;;21.70;41.70;;;;;;5055163;28;20044;-49
2023/03/19 01:15:18;;;;;;;0.35;0.30;;;21.70;41.70;;;;;;5060085;28;20055;-48
2023/03/19 01:17:44;;;;;;;0.68;0.40;;;21.70;41.70;;;;;;5053951;28;20048;-49
2023/03/19 01:20:12;;;;;;;0.40;0.40;;;21.70;41.70;;;;;;5054650;28;20108;-49
2023/03/19 01:22:41;;;;;;;0.30;0.30;;;21.70;41.80;;;;;;5063388;28;20072;-53
2023/03/19 01:25:09;;;;;;;0.38;0.30;;;21.70;41.90;;;;;;5056647;28;20047;-48
2023/03/19 01:27:36;;;;;;;0.20;0.20;;;21.70;42.00;;;;;;5053734;28;20036;-52
2023/03/19 01:30:03;;;;;;;0.73;0.50;;;21.60;42.00;;;;;;5056220;28;20037;-50
2023/03/19 01:32:48;;;;;;;1.48;0.40;;;21.60;42.00;;;;;;5058750;28;20039;-47
2023/03/19 01:35:30;;;;;;;0.30;0.30;;;21.70;42.10;;;;;;5053543;28;20041;-51
2023/03/19 01:37:56;;;;;;;0.80;0.45;;;21.60;42.10;;;;;;5059939;28;20048;-49
2023/03/19 01:40:22;;;;;;;0.90;0.43;;;21.60;42.00;;;;;;5051857;28;20025;-52
2023/03/19 01:43:11;;;;;;;0.98;0.57;;;21.60;42.10;;;;;;5058005;28;20036;-50
2023/03/19 01:46:24;;;;;;;0.43;0.28;;;21.60;42.10;;;;;;5044722;28;20138;-52
2023/03/19 01:48:58;;;;;;;0.70;0.43;;;21.60;42.10;;;;;;5055760;28;20037;-52
2023/03/19 01:51:30;;;;;;;0.82;0.30;;;21.60;42.10;;;;;;5051922;28;20349;-49
2023/03/19 01:54:12;;;;;;;;;;;21.60;42.10;;;;;;5049511;28;20041;-48
2023/03/19 01:56:54;;;;;;;0.60;0.30;;;21.60;42.10;;;;;;5054970;28;20340;-48
2023/03/19 01:59:35;;;;;;;0.65;0.22;;;21.50;42.10;;;;;;5055369;28;20024;-47
2023/03/19 02:02:29;;;;;;;0.55;0.30;;;21.50;42.10;;;;;;5050971;28;20609;-49
2023/03/19 02:05:05;;;;;;;0.80;0.45;;;21.50;42.10;;;;;;5035393;28;20063;-51
2023/03/19 02:07:33;;;;;;;1.35;0.40;;;21.50;42.10;;;;;;5053153;28;20038;-48
2023/03/19 02:10:00;;;;;;;0.50;0.40;;;21.50;42.20;;;;;;5048277;28;20153;-51
2023/03/19 02:12:27;;;;;;;0.82;0.30;;;21.50;42.10;;;;;;5070588;28;20445;-47
2023/03/19 02:14:53;;;;;;;0.52;0.38;;;21.50;42.10;;;;;;5054938;28;20068;-50
2023/03/19 02:17:20;;;;;;;0.50;0.32;;;21.50;42.20;;;;;;5054410;28;20032;-53
2023/03/19 02:19:52;;;;;;;1.10;0.40;;;21.50;42.20;;;;;;5052074;28;20029;-47
2023/03/19 02:22:23;;;;;;;1.00;0.40;;;21.50;42.20;;;;;;5057995;28;20059;-51
2023/03/19 02:24:56;;;;;;;0.98;0.40;;;21.50;42.20;;;;;;5053760;28;20021;-50
2023/03/19 02:27:23;;;;;;;0.88;0.50;;;21.50;42.20;;;;;;5051034;28;20058;-50
2023/03/19 02:29:50;;;;;;;0.85;0.50;;;21.50;42.20;;;;;;5054252;28;20055;-48
2023/03/19 02:32:16;;;;;;;0.80;0.40;;;21.50;42.30;;;;;;5051950;28;20032;-49
2023/03/19 02:34:44;;;;;;;0.75;0.43;;;21.40;42.20;;;;;;5042760;28;20141;-48
2023/03/19 02:37:13;;;;;;;1.40;0.45;;;21.50;42.30;;;;;;5044112;28;20063;-47
2023/03/19 02:39:48;;;;;;;0.73;0.35;;;21.50;42.40;;;;;;5050448;28;20029;-49
2023/03/19 02:42:16;;;;;;;0.73;0.32;;;21.50;42.40;;;;;;5054274;28;20028;-50
2023/03/19 02:44:42;;;;;;;0.82;0.40;;;21.50;42.40;;;;;;5073539;28;20021;-49
2023/03/19 02:47:08;;;;;;;1.02;0.35;;;21.50;42.40;;;;;;5057937;28;20043;-48
2023/03/19 02:49:34;;;;;;;1.40;0.50;;;21.40;42.40;;;;;;5052376;28;20039;-47
2023/03/19 02:52:00;;;;;;;0.82;0.40;;;21.40;42.40;;;;;;5050406;28;20030;-48
2023/03/19 02:54:26;;;;;;;0.98;0.52;;;21.50;42.50;;;;;;5051628;28;20105;-51
2023/03/19 02:56:52;;;;;;;0.30;0.30;;;21.40;42.40;;;;;;5054490;28;20040;-48
2023/03/19 02:59:18;;;;;;;1.67;0.60;;;21.40;42.50;;;;;;5057431;28;20053;-50
2023/03/19 03:01:44;;;;;;;1.27;0.52;;;21.40;42.50;;;;;;5056772;28;20061;-50
2023/03/19 03:04:10;;;;;;;0.98;0.50;;;21.40;42.50;;;;;;5055000;28;20107;-52
2023/03/19 03:06:36;;;;;;;0.70;0.45;;;21.40;42.50;;;;;;5055309;28;20360;-49
2023/03/19 03:09:02;;;;;;;0.30;0.30;;;21.40;42.50;;;;;;5048628;28;20036;-48
2023/03/19 03:11:28;;;;;;;0.85;0.50;;;21.40;42.50;;;;;;5059740;28;20017;-47
2023/03/19 03:13:54;;;;;;;1.58;0.50;;;21.40;42.60;;;;;;5055110;28;20033;-51
2023/03/19 03:16:20;;;;;;;0.70;0.40;;;21.40;42.60;;;;;;5053119;28;20499;-51
2023/03/19 03:18:46;;;;;;;0.73;0.40;;;21.40;42.60;;;;;;5074736;28;20036;-47
2023/03/19 03:21:12;;;;;;;0.68;0.47;;;21.40;42.70;;;;;;5049767;28;20033;-49
2023/03/19 03:23:38;;;;;;;1.13;0.52;;;21.40;42.70;;;;;;5054244;28;20472;-49
2023/03/19 03:26:05;;;;;;;0.82;0.43;;;21.40;42.70;;;;;;5059439;28;20104;-49
2023/03/19 03:28:32;;;;;;;1.15;0.40;;;21.40;42.70;;;;;;5053885;28;20091;-49
2023/03/19 03:30:59;;;;;;;0.57;0.47;;;21.40;42.70;;;;;;5053438;28;20024;-50
2023/03/19 03:33:26;;;;;;;0.50;0.40;;;21.30;42.70;;;;;;5057926;28;20392;-50
2023/03/19 03:35:51;;;;;;;1.58;0.50;;;21.30;42.70;;;;;;5049071;28;20040;-52
2023/03/19 03:38:17;;;;;;;1.50;0.52;;;21.30;42.80;;;;;;5055820;28;20021;-50
2023/03/19 03:40:43;;;;;;;0.65;0.40;;;21.30;42.80;;;;;;5061131;28;20071;-52
2023/03/19 03:43:09;;;;;;;0.90;0.45;;;21.30;42.80;;;;;;5054008;28;20025;-54
2023/03/19 03:45:36;;;;;;;1.02;0.45;;;21.30;42.90;;;;;;5057567;28;20495;-52
2023/03/19 03:48:02;;;;;;;1.05;0.60;;;21.30;42.90;;;;;;5038186;28;21420;-48
2023/03/19 03:50:28;;;;;;;1.08;0.50;;;21.30;42.90;;;;;;5055049;28;20033;-52
2023/03/19 03:52:58;;;;;;;1.60;0.70;;;21.30;42.90;;;;;;5045583;28;20033;-50
2023/03/19 03:55:23;;;;;;;0.90;0.50;;;21.30;43.00;;;;;;5053487;28;20354;-47
2023/03/19 03:57:49;;;;;;;0.40;0.30;;;21.30;43.00;;;;;;5051188;28;20364;-53
2023/03/19 04:00:15;;;;;;;0.82;0.60;;;21.30;43.00;;;;;;5053399;28;20064;-52
2023/03/19 04:02:42;;;;;;;1.00;0.50;;;21.30;43.10;;;;;;5057991;28;20369;-50
2023/03/19 04:05:12;;;;;;;0.95;0.60;;;21.30;43.10;;;;;;5056161;28;20055;-48
2023/03/19 04:07:38;;;;;;;1.60;0.55;;;21.30;43.10;;;;;;5057720;28;20535;-51
2023/03/19 04:10:05;;;;;;;0.85;0.50;;;21.30;43.10;;;;;;5055219;28;20039;-49
2023/03/19 04:12:31;;;;;;;0.90;0.60;;;21.20;43.10;;;;;;5053628;28;20036;-48
2023/03/19 04:14:57;;;;;;;0.77;0.50;;;21.30;43.20;;;;;;5057596;28;20039;-48
2023/03/19 04:17:23;;;;;;;0.85;0.60;;;21.20;43.10;;;;;;5062280;28;20034;-50
2023/03/19 04:19:49;;;;;;;1.13;0.35;;;21.20;43.20;;;;;;5055831;28;20043;-47
2023/03/19 04:22:14;;;;;;;1.20;0.40;;;21.30;43.20;;;;;;5057359;28;20028;-50
2023/03/19 04:24:40;;;;;;;1.08;0.50;;;21.20;43.20;;;;;;5059739;28;20075;-50
2023/03/19 04:27:07;;;;;;;1.13;0.68;;;21.20;43.20;;;;;;5060354;28;20067;-46
2023/03/19 04:29:34;;;;;;;0.82;0.60;;;21.20;43.20;;;;;;5060680;28;20123;-50
2023/03/19 04:32:00;;;;;;;1.20;0.63;;;21.20;43.20;;;;;;5056930;28;20017;-46
2023/03/19 04:34:26;;;;;;;1.10;0.65;;;21.20;43.20;;;;;;5058346;28;20047;-50
2023/03/19 04:36:52;;;;;;;0.77;0.60;;;21.20;43.30;;;;;;5061099;28;20028;-54
2023/03/19 04:39:18;;;;;;;1.23;0.60;;;21.20;43.30;;;;;;5052049;28;21280;-51
2023/03/19 04:41:44;;;;;;;1.23;0.50;;;21.20;43.40;;;;;;5051368;28;20024;-52
2023/03/19 04:44:33;;;;;;;0.63;0.50;;;21.20;43.30;;;;;;5050362;28;20619;-48
2023/03/19 04:47:00;;;;;;;1.60;0.70;;;21.20;43.30;;;;;;5073184;28;20029;-48
2023/03/19 04:49:28;;;;;;;1.38;0.63;;;21.20;43.30;;;;;;5061469;28;20071;-50
2023/03/19 04:51:55;;;;;;;0.88;0.52;;;21.20;43.40;;;;;;5053686;28;20074;-50
2023/03/19 04:54:21;;;;;;;1.40;0.75;;;21.20;43.40;;;;;;5060170;28;20040;-50
2023/03/19 04:56:47;;;;;;;1.08;0.50;;;21.20;43.40;;;;;;5053445;28;20029;-48
2023/03/19 04:59:13;;;;;;;0.73;0.50;;;21.20;43.40;;;;;;5056933;28;20048;-49
2023/03/19 05:01:38;;;;;;;1.58;0.82;;;21.20;43.40;;;;;;5077993;28;20479;-47
2023/03/19 05:04:07;;;;;;;1.35;0.70;;;21.20;43.40;;;;;;5053748;28;20025;-49
2023/03/19 05:06:37;;;;;;;0.75;0.70;;;21.20;43.50;;;;;;5058430;28;20381;-52
2023/03/19 05:09:05;;;;;;;1.08;0.70;;;21.20;43.50;;;;;;5055957;28;20345;-51
2023/03/19 05:11:31;;;;;;;1.25;0.75;;;21.20;43.50;;;;;;5055276;28;20571;-51
2023/03/19 05:14:08;;;;;;;1.52;0.75;;;21.20;43.50;;;;;;5058940;28;20033;-49
2023/03/19 05:16:57;;;;;;;1.00;0.70;;;21.20;43.50;;;;;;5050380;28;20044;-48
2023/03/19 05:19:25;;;;;;;0.90;0.65;;;21.20;43.50;;;;;;5050235;28;20032;-48
2023/03/19 05:21:52;;;;;;;0.88;0.60;;;21.10;43.40;;;;;;5056603;28;20103;-47
2023/03/19 05:24:23;;;;;;;1.35;0.70;;;21.10;43.50;;;;;;5053039;28;20342;-50
2023/03/19 05:26:49;;;;;;;0.77;0.60;;;21.10;43.50;;;;;;5058515;28;20031;-52
2023/03/19 05:29:35;;;;;;;0.82;0.70;;;21.10;43.50;;;;;;5056462;28;20044;-49
2023/03/19 05:32:16;;;;;;;1.15;0.80;;;21.10;43.60;;;;;;5059833;28;20106;-49
2023/03/19 05:34:44;;;;;;;0.90;0.60;;;21.10;43.60;;;;;;5077823;28;20047;-51
2023/03/19 05:37:10;;;;;;;2.03;0.80;;;21.10;43.60;;;;;;5054766;28;20445;-52
2023/03/19 05:39:36;;;;;;;1.77;0.80;;;21.10;43.70;;;;;;5063696;28;20025;-50
2023/03/19 05:42:06;;;;;;;1.55;0.75;;;21.10;43.80;;;;;;5065140;28;20028;-52
2023/03/19 05:44:32;;;;;;;1.10;0.70;;;21.10;43.80;;;;;;5059630;28;20150;-49
2023/03/19 05:47:14;;;;;;;1.00;0.70;;;21.10;43.90;;;;;;5061545;28;20357;-52
2023/03/19 05:49:46;;;;;;;1.02;0.90;;;21.10;43.90;;;;;;5046391;28;20021;-49
2023/03/19 05:52:12;;;;;;;1.25;0.80;;;21.10;43.80;;;;;;5060804;28;20029;-53
2023/03/19 05:54:40;;;;;;;1.85;0.88;;;21.10;43.90;;;;;;5061701;28;20132;-51
2023/03/19 05:57:18;;;;;;;1.65;1.00;;;21.10;43.80;;;;;;5062521;28;20024;-50
2023/03/19 06:00:07;;;;;;;1.73;1.10;;;21.10;43.80;;;;;;5062521;28;20043;-47
2023/03/19 06:02:34;;;;;;;1.92;1.10;;;21.10;43.80;;;;;;5057836;28;20043;-47
2023/03/19 06:05:14;;;;;;;1.20;1.00;;;21.10;43.80;;;;;;5062297;28;20025;-50
2023/03/19 06:07:40;;;;;;;1.23;1.13;;;21.10;43.90;;;;;;5060217;28;20542;-48
2023/03/19 06:10:12;;;;;;;1.50;1.10;;;21.10;43.80;;;;;;5063629;28;20033;-52
2023/03/19 06:12:38;;;;;;;1.75;1.15;;;21.10;43.80;;;;;;5062107;28;20338;-51
2023/03/19 06:15:10;;;;;;;1.58;0.98;;;21.10;43.80;;;;;;5062860;28;20787;-52
2023/03/19 06:17:43;;;;;;;1.73;1.23;;;21.10;43.80;;;;;;5061064;28;20389;-51
2023/03/19 06:20:11;;;;;;;1.38;0.90;;;21.10;43.80;;;;;;5061996;28;20498;-47
2023/03/19 06:22:39;;;;;;;1.20;0.90;;;21.00;43.80;;;;;;5063851;28;20016;-47
2023/03/19 06:25:06;;;;;;;1.20;0.98;;;21.00;43.80;;;;;;5059804;28;20039;-50
2023/03/19 06:27:35;;;;;;;2.88;1.30;;;21.00;43.80;;;;;;5061330;28;20513;-51
2023/03/19 06:30:15;;;;;;;1.70;1.30;;;21.00;43.80;;;;;;5061139;28;20045;-50
2023/03/19 06:32:41;;;;;;;2.10;1.60;;;21.00;43.80;;;;;;5058969;28;20024;-48
2023/03/19 06:35:12;;;;;;;2.72;1.50;;;21.00;43.70;;;;;;5063040;28;20039;-49
2023/03/19 06:37:38;;;;;;;1.80;1.30;;;21.00;43.70;;;;;;5063694;28;20386;-48
2023/03/19 06:40:05;;;;;;;2.78;1.80;;;21.10;43.80;;;;;;5063508;28;20029;-49
2023/03/19 06:42:31;;;;;;;2.17;1.48;;;21.00;43.70;;;;;;5061572;28;20087;-51
2023/03/19 06:44:57;;;;;;;2.08;1.52;;;21.00;43.70;;;;;;5063218;28;20325;-52
2023/03/19 06:47:23;;;;;;;2.28;1.70;;;21.00;43.70;;;;;;5061892;28;20081;-52
2023/03/19 06:49:48;;;;;;;1.70;1.30;;;21.00;43.70;;;;;;5062260;28;20046;-53
2023/03/19 06:52:14;;;;;;;2.38;1.77;;;21.00;43.70;;;;;;5062351;28;20044;-50
2023/03/19 06:54:40;;;;;;;2.08;1.60;;;21.00;43.70;;;;;;5064058;28;20123;-47
2023/03/19 06:57:06;;;;;;;3.10;1.40;;;21.00;43.70;;;;;;5061343;28;20040;-50
2023/03/19 06:59:32;;;;;;;3.00;1.45;;;21.00;43.70;;;;;;5061708;28;20021;-52
2023/03/19 07:01:58;;;;;;;1.27;1.15;;;21.00;44.30;;;;;;5060607;28;20348;-51
2023/03/19 07:04:24;;;;;;;3.05;1.88;;;21.00;43.70;;;;;;5063287;28;20079;-50
2023/03/19 07:06:49;;;;;;;2.15;1.65;;;21.00;43.70;;;;;;5064403;28;20021;-50
2023/03/19 07:09:15;;;;;;;1.83;1.40;;;21.00;43.70;;;;;;5061036;28;20497;-55
2023/03/19 07:11:41;;;;;;;1.73;1.30;;;21.00;43.80;;;;;;5062058;28;20116;-48
2023/03/19 07:14:07;;;;;;;2.38;1.40;;;21.00;43.80;;;;;;5062939;28;20060;-49
2023/03/19 07:16:33;;;;;;;2.63;1.55;;;21.00;43.80;;;;;;5059107;28;20045;-48
2023/03/19 07:18:59;;;;;;;2.38;1.40;;;21.00;43.80;;;;;;5055972;28;20028;-50
2023/03/19 07:21:25;;;;;;;2.20;1.30;;;21.00;43.80;;;;;;5061963;28;20127;-49
2023/03/19 07:23:51;;;;;;;2.63;1.33;;;21.00;43.80;;;;;;5050350;28;20104;-48
2023/03/19 07:26:17;;;;;;;1.92;1.33;;;21.00;43.80;;;;;;5046556;28;20115;-53
2023/03/19 07:28:43;;;;;;;2.30;1.50;;;21.00;43.90;;;;;;5051566;28;20698;-49
2023/03/19 07:31:09;;;;;;;2.60;1.45;;;21.00;43.90;;;;;;5043469;28;20021;-48
2023/03/19 07:33:35;;;;;;;2.15;1.30;;;21.00;43.90;;;;;;5047962;28;20543;-49
2023/03/19 07:36:01;;;;;;;1.52;1.25;;;21.00;43.90;;;;;;5058587;28;20104;-50
2023/03/19 07:38:27;;;;;;;2.45;1.50;;;21.00;43.90;;;;;;5052828;28;20021;-51
2023/03/19 07:40:52;;;;;;;2.53;1.20;;;21.00;43.90;;;;;;5058082;28;20037;-51
2023/03/19 07:43:18;;;;;;;1.77;1.23;;;21.00;43.90;;;;;;5054176;28;20037;-50
2023/03/19 07:45:44;;;;;;;1.75;1.27;;;21.00;43.80;;;;;;5055138;28;20025;-51
2023/03/19 07:48:10;;;;;;;3.00;1.40;;;21.00;43.80;;;;;;5047624;28;20373;-51
2023/03/19 07:50:36;;;;;;;1.98;1.20;;;21.00;43.90;;;;;;5048692;28;20582;-52
2023/03/19 07:53:02;;;;;;;2.03;1.23;;;21.00;43.80;;;;;;5059729;28;20033;-52
2023/03/19 07:55:28;;;;;;;4.22;1.27;;;21.00;43.80;;;;;;5057197;28;20103;-52
2023/03/19 07:57:54;;;;;;;2.45;1.20;;;21.00;43.80;;;;;;5064649;28;20043;-52
2023/03/19 08:00:20;;;;;;;1.60;1.27;;;21.00;43.70;;;;;;5066397;28;20119;-53
2023/03/19 08:02:46;;;;;;;2.13;1.25;;;21.00;43.70;;;;;;5066599;28;20419;-53
2023/03/19 08:05:13;;;;;;;1.75;1.17;;;21.00;43.70;;;;;;5063707;28;20456;-50
2023/03/19 08:07:39;;;;;;;1.83;1.23;;;21.00;43.70;;;;;;5062183;28;20025;-49
2023/03/19 08:10:06;;;;;;;4.70;1.25;;;21.00;43.70;;;;;;5067050;28;20036;-53
2023/03/19 08:12:33;;;;;;;2.05;1.13;;;21.00;43.70;;;;;;5065337;28;20025;-55
2023/03/19 08:14:59;;;;;;;2.50;1.20;;;21.00;43.70;;;;;;5066323;28;20033;-54
2023/03/19 08:17:26;;;;;;;1.70;1.00;;;21.00;43.70;;;;;;5063351;28;20040;-51
2023/03/19 08:19:51;;;;;;;2.85;1.10;;;21.00;43.60;;;;;;5060891;28;20033;-49
2023/03/19 08:22:17;;;;;;;2.05;1.10;;;21.10;43.70;;;;;;5065011;28;20021;-51
2023/03/19 08:24:43;;;;;;;1.88;1.00;;;21.10;43.70;;;;;;5065617;28;20029;-53
2023/03/19 08:27:09;;;;;;;2.15;1.02;;;21.10;43.60;;;;;;5066730;28;20086;-54
2023/03/19 08:29:35;;;;;;;1.70;1.13;;;21.10;43.70;;;;;;5061168;28;20354;-54
2023/03/19 08:32:01;;;;;;;1.92;1.02;;;21.10;43.70;;;;;;5056314;28;20032;-52
2023/03/19 08:34:28;;;;;;;2.05;1.10;;;21.10;43.60;;;;;;5057082;28;20047;-51
2023/03/19 08:36:53;;;;;;;0.90;0.80;;;21.10;43.70;;;;;;5055115;28;20479;-52
2023/03/19 08:39:19;;;;;;;3.33;1.08;;;21.10;43.60;;;;;;5057015;28;20112;-56
2023/03/19 08:41:45;;;;;;;1.70;1.00;;;21.10;43.60;;;;;;5058543;28;20071;-50
2023/03/19 08:44:11;;;;;;;1.45;1.02;;;21.10;43.60;;;;;;5066855;28;20151;-55
2023/03/19 08:46:37;;;;;;;2.15;1.20;;;21.10;43.70;;;;;;5063361;28;20028;-50
2023/03/19 08:49:03;;;;;;;1.52;1.13;;;21.20;43.70;;;;;;5064151;28;20059;-54
2023/03/19 08:51:30;;;;;;;2.05;1.25;;;21.20;43.70;;;;;;5065467;28;20115;-55
2023/03/19 08:53:56;;;;;;;3.10;1.30;;;21.10;43.60;;;;;;5056724;28;20095;-54
2023/03/19 08:56:22;;;;;;;3.33;1.48;;;21.20;43.60;;;;;;5049688;28;20056;-51
2023/03/19 08:58:48;;;;;;;1.98;0.98;;;21.20;43.50;;;;;;5056080;28;20063;-51
2023/03/19 09:01:14;;;;;;;1.65;1.00;;;21.20;43.50;;;;;;5062551;28;20032;-54
2023/03/19 09:03:41;;;;;;;1.90;0.88;;;21.20;43.50;;;;;;5060994;28;20029;-53
2023/03/19 09:06:09;;;;;;;1.67;1.10;;;21.20;43.50;;;;;;5062253;28;20075;-53
2023/03/19 09:08:37;;;;;;;2.72;1.38;;;21.20;43.40;;;;;;5064414;28;20056;-51
2023/03/19 09:11:04;;;;;;;1.83;1.17;;;21.20;43.40;;;;;;5063676;28;20036;-52
2023/03/19 09:13:30;;;;;;;2.60;1.30;;;21.20;43.40;;;;;;5065846;28;20044;-54
2023/03/19 09:15:56;;;;;;;2.05;1.17;;;21.20;43.30;;;;;;5060022;28;20040;-50
2023/03/19 09:18:25;;;;;;;3.13;1.10;;;21.30;43.40;;;;;;5059382;28;20062;-54
2023/03/19 09:20:54;;;;;;;2.50;1.17;;;21.30;43.30;;;;;;5063732;28;20033;-57
2023/03/19 09:23:20;;;;;;;1.55;1.25;;;21.30;43.30;;;;;;5064829;28;20035;-52
2023/03/19 09:25:47;;;;;;;2.35;1.48;;;21.30;43.20;;;;;;5061150;28;20040;-51
2023/03/19 09:28:13;;;;;;;2.47;1.30;;;21.30;43.20;;;;;;5054111;28;20025;-54
2023/03/19 09:30:39;;;;;;;2.17;1.35;;;21.30;43.20;;;;;;5057388;28;20037;-60
2023/03/19 09:33:06;;;;;;;1.60;1.20;;;21.40;43.30;;;;;;5042348;28;20357;-61
2023/03/19 09:35:33;;;;;;;1.42;1.10;;;21.40;43.30;;;;;;5044327;28;20049;-60
2023/03/19 09:38:00;;;;;;;2.00;0.90;;;21.40;43.10;;;;;;5056709;28;20075;-53
2023/03/19 09:40:32;;;;;;;2.13;1.20;;;21.40;42.80;;;;;;5062017;28;20060;-52
2023/03/19 09:43:16;;;;;;;1.10;1.00;;;21.30;42.50;;;;;;5059161;28;20052;-52
2023/03/19 09:45:45;;;;;;;3.20;1.48;;;21.30;42.20;;;;;;5063505;28;20035;-52
2023/03/19 09:48:47;;;;;;;1.98;1.40;;;21.30;42.20;;;;;;5064796;28;20404;-53
2023/03/19 09:51:20;;;;;;;2.47;1.17;;;21.40;42.20;;;;;;5066521;28;20399;-55
2023/03/19 09:54:03;;;;;;;2.75;1.75;;;21.40;42.30;;;;;;5059865;28;20376;-50
2023/03/19 09:56:32;;;;;;;2.63;1.65;;;21.40;42.20;;;;;;5059768;28;20051;-53
2023/03/19 09:58:58;;;;;;;2.10;1.40;;;21.40;42.20;;;;;;5061577;28;20528;-54
2023/03/19 10:01:50;;;;;;;2.63;1.45;;;21.40;42.20;;;;;;5057133;28;20028;-52
2023/03/19 10:04:41;;;;;;;2.40;1.60;;;21.50;42.30;;;;;;5061808;28;20119;-50
2023/03/19 10:07:43;;;;;;;2.67;1.85;;;21.40;42.30;;;;;;5061919;28;20047;-54
2023/03/19 10:10:42;;;;;;;3.03;1.80;;;21.40;42.90;;;;;;5045119;28;20032;-51
2023/03/19 10:13:14;;;;;;;3.38;1.92;;;21.50;42.40;;;;;;5054822;28;20033;-54
2023/03/19 10:15:43;;;;;;;3.70;1.95;;;21.50;42.40;;;;;;5055099;28;20468;-52
2023/03/19 10:18:24;;;;;;;3.35;1.67;;;21.50;42.40;;;;;;5069270;28;20111;-52
2023/03/19 10:21:01;;;;;;;2.53;1.48;;;21.50;42.40;;;;;;5064162;28;20021;-54
2023/03/19 10:23:43;;;;;;;2.38;1.70;;;21.50;42.40;;;;;;5033130;28;20171;-52
2023/03/19 10:26:12;;;;;;;2.28;1.58;;;21.50;42.50;;;;;;5044753;28;20037;-54
2023/03/19 10:28:42;;;;;;;3.28;2.00;;;21.50;42.50;;;;;;5063409;28;20039;-52
2023/03/19 10:31:24;;;;;;;3.25;1.73;;;21.50;42.50;;;;;;5072229;28;20029;-50
2023/03/19 10:34:22;;;;;;;3.17;1.98;;;21.50;42.50;;;;;;5049973;28;20032;-51
2023/03/19 10:36:48;;;;;;;3.25;1.77;;;21.60;42.60;;;;;;5053705;28;20044;-52
2023/03/19 10:39:17;;;;;;;2.53;1.80;;;21.50;42.50;;;;;;5066878;28;20085;-54
2023/03/19 10:42:00;;;;;;;3.38;1.90;;;21.60;42.60;;;;;;5058971;28;20039;-60
2023/03/19 10:44:30;;;;;;;1.88;1.58;;;21.50;42.50;;;;;;5061337;28;20432;-60
2023/03/19 10:46:58;;;;;;;2.17;1.50;;;21.60;42.50;;;;;;5062766;28;20051;-52
2023/03/19 10:49:25;;;;;;;2.00;1.67;;;21.50;42.40;;;;;;5050827;28;20061;-50
2023/03/19 10:51:51;;;;;;;2.50;1.48;;;21.50;42.80;;;;;;5049596;28;20348;-52
2023/03/19 10:54:23;;;;;;;2.42;1.70;;;21.50;43.00;;;;;;5061899;28;20036;-48
2023/03/19 10:56:50;;;;;;;3.33;1.65;;;21.50;43.10;;;;;;5060684;28;20048;-51
2023/03/19 10:59:26;;;;;;;3.13;2.10;;;21.60;43.10;;;;;;5063375;28;20028;-48
2023/03/19 11:02:14;;;;;;;2.60;1.98;;;21.60;43.10;;;;;;5063126;28;20341;-51
2023/03/19 11:04:40;;;;;;;3.28;1.83;;;21.60;43.00;;;;;;5060975;28;20090;-52
2023/03/19 11:07:13;;;;;;;2.72;2.00;;;21.60;42.90;;;;;;5060322;28;20032;-47
2023/03/19 11:09:43;;;;;;;2.13;1.92;;;21.60;42.80;;;;;;5063519;28;20318;-50
2023/03/19 11:12:19;;;;;;;2.30;1.70;;;21.60;42.80;;;;;;5064715;28;20021;-49
2023/03/19 11:14:55;;;;;;;2.75;2.17;;;21.60;42.80;;;;;;5060180;28;20037;-47
2023/03/19 11:17:48;;;;;;;2.10;1.70;;;21.60;42.70;;;;;;5063645;28;20414;-51
2023/03/19 11:20:31;;;;;;;3.08;1.80;;;21.60;42.70;;;;;;5060711;28;20082;-50
2023/03/19 11:23:01;;;;;;;2.85;2.30;;;21.70;42.70;;;;;;5063810;28;20116;-51
2023/03/19 11:25:32;;;;;;;3.22;2.13;;;21.70;42.70;;;;;;5062112;28;20032;-50
2023/03/19 11:28:05;;;;;;;2.67;2.20;;;21.60;42.60;;;;;;5062037;28;20028;-48
2023/03/19 11:30:54;;;;;;;3.17;2.47;;;21.70;42.70;;;;;;5060165;28;20037;-49
2023/03/19 11:33:45;;;;;;;3.28;2.60;;;21.70;42.70;;;;;;5062721;28;20028;-50
2023/03/19 11:36:21;;;;;;;3.15;1.83;;;21.70;42.70;;;;;;5063180;28;20040;-51
2023/03/19 11:38:56;;;;;;;3.50;2.15;;;21.70;42.70;;;;;;5062921;28;20455;-48
2023/03/19 11:41:40;;;;;;;3.67;2.10;;;21.70;42.70;;;;;;5059136;28;20028;-53
2023/03/19 11:44:18;;;;;;;2.08;1.77;;;21.70;42.70;;;;;;5059142;28;20028;-51
2023/03/19 11:47:02;;;;;;;3.78;2.22;;;21.70;42.60;;;;;;5059048;28;20049;-57
2023/03/19 11:49:40;;;;;;;;;;;21.70;42.60;;;;;;5060517;28;20032;-52
2023/03/19 11:52:28;;;;;;;3.58;2.40;;;21.70;42.60;;;;;;5055095;28;19924;-52
2023/03/19 11:55:21;;;;;;;3.60;2.25;;;21.70;42.60;;;;;;5059530;28;20039;-53
2023/03/19 11:58:06;;;;;;;3.72;2.22;;;21.70;42.60;;;;;;5042940;28;20076;-49
2023/03/19 12:00:51;;;;;;;2.72;2.00;;;21.70;42.90;;;;;;5035478;28;20025;-50
2023/03/19 12:03:39;;;;;;;3.67;2.20;;;21.80;43.30;;;;;;5049756;28;20040;-50
2023/03/19 12:06:16;;;;;;;3.92;2.30;;;21.80;43.50;;;;;;5050760;28;20024;-49
2023/03/19 12:08:59;;;;;;;3.58;2.40;;;21.80;43.60;;;;;;5046473;28;20400;-52
2023/03/19 12:11:53;;;;;;;4.55;2.75;;;21.80;43.70;;;;;;5041502;28;20503;-49
2023/03/19 12:14:29;;;;;;;3.92;2.50;;;21.90;43.80;;;;;;5050585;28;20041;-48
2023/03/19 12:17:27;;;;;;;3.72;2.67;;;21.90;43.80;;;;;;5052150;28;20056;-53
2023/03/19 12:20:29;;;;;;;4.15;2.88;;;21.90;43.80;;;;;;5061466;28;20063;-55
2023/03/19 12:23:06;;;;;;;4.53;2.72;;;22.00;43.90;;;;;;5039721;28;20128;-52
2023/03/19 12:25:44;;;;;;;9.73;6.10;;;22.00;43.80;;;;;;5071585;28;20032;-55
2023/03/19 12:28:20;;;;;;;14.25;8.18;;;22.00;44.60;;;;;;5038137;28;20029;-54
2023/03/19 12:31:10;;;;;;;14.02;9.20;;;22.10;46.30;;;;;;5037663;28;20029;-53
2023/03/19 12:33:58;;;;;;;18.63;10.15;;;22.10;47.80;;;;;;5039766;28;20186;-52
2023/03/19 12:36:32;;;;;;;20.10;10.50;;;22.10;48.90;;;;;;5056791;28;20051;-56
2023/03/19 12:39:05;;;;;;;21.90;12.57;;;22.20;49.90;;;;;;5054898;28;20361;-53
2023/03/19 12:41:32;;;;;;;26.13;13.30;;;22.20;50.50;;;;;;5055702;28;20082;-51
2023/03/19 12:44:08;;;;;;;21.23;12.23;;;22.20;50.90;;;;;;5055890;28;20389;-50
2023/03/19 12:46:54;;;;;;;21.10;12.07;;;22.30;51.30;;;;;;5054464;28;20024;-54
2023/03/19 12:49:30;;;;;;;20.05;12.77;;;22.30;51.00;;;;;;5053422;28;20037;-54
2023/03/19 12:52:15;;;;;;;25.40;15.20;;;22.30;50.90;;;;;;5054427;28;20039;-53
2023/03/19 12:54:47;;;;;;;27.13;16.63;;;22.30;51.50;;;;;;5053214;28;20053;-52
2023/03/19 12:57:52;;;;;;;32.60;17.83;;;22.40;52.60;;;;;;5055070;28;20036;-54
2023/03/19 13:00:43;;;;;;;23.85;13.82;;;22.40;53.70;;;;;;5047920;28;20392;-51
2023/03/19 13:03:24;;;;;;;17.67;11.85;;;22.50;52.70;;;;;;5037113;28;20112;-53
2023/03/19 13:06:05;;;;;;;20.23;12.73;;;22.50;51.20;;;;;;5045785;28;20082;-52